Skip Navigation Links
NOAA logo - Click to go to the NOAA homepage
NOAA's National Weather Service
Alaska Aviation Weather Unit
  NWS logo - Click to go to the NWS homepage
Left Navbar Graphic     21 AKDT = 05 GMT

   
NOAA is celebrating 200 years of science, service, and stewardship. Visit the NOAA 200th celebration Web site to learn more.
USA.gov is the U.S. Government's official Web portal to all Federal, state and local government Web resources and services.
Facebook
NWS on Facebook

AAWU Home :: Display TAF Add Bookmark
SPECI PABA 262300Z AUTO 08011KT 2SM -SN OVC012 M14/M17 A3011 RMK AO2 VIS
     3/4V5 P0000 FZRANO TSNO=

SPECI PABA 262305Z AUTO 09010KT 1 3/4SM -SN OVC012 M14/M17 A3011 RMK
      AO2 VIS 3/4V5 P0000 FZRANO TSNO=

SPECI PABA 262309Z AUTO 08014KT 2 1/2SM -SN OVC012 M14/M17 A3011 RMK
      AO2 VIS 3/4V5 P0000 FZRANO TSNO=

SPECI PABA 262312Z AUTO 08011KT 4SM -SN OVC012 M14/M17 A3011 RMK AO2
     P0000 FZRANO TSNO=

SPECI PABA 262329Z AUTO 08012KT 2 1/2SM -SN OVC012 M14/M17 A3011 RMK
      AO2 VIS 1 1/2V5 P0000 FZRANO TSNO=

SPECI PABA 262335Z AUTO 07012KT 4SM -SN OVC012 M14/M17 A3011 RMK AO2
     P0000 FZRANO TSNO=

PABA 262352Z AUTO 07010KT 1 3/4SM -SN OVC012 M13/M17 A3010=

SPECI PABA 262358Z AUTO 08012KT 1SM -SN OVC012 M14/M17 A3010 RMK AO2
      P0000 FZRANO TSNO=

SPECI PABA 270004Z AUTO 08013KT 1 3/4SM -SN OVC012 M14/M17 A3010 RMK AO2
     VIS 1/2V5 P0000 FZRANO TSNO=

SPECI PABA 270006Z AUTO 07012KT 3SM -SN OVC012 M14/M17 A3010 RMK AO2
     P0000 FZRANO TSNO=

SPECI PABA 270026Z AUTO 06011KT 1 3/4SM -SN OVC014 M14/M17 A3010 RMK
      AO2 P0000 FZRANO TSNO=

SPECI PABA 270031Z AUTO 07013KT 3/4SM -SN OVC012 M14/M17 A3010 RMK
      AO2 P0000 FZRANO TSNO=

SPECI PABA 270037Z AUTO 08012KT 1SM -SN OVC012 M14/M17 A3010 RMK AO2
      VIS 1/2V5 P0000 FZRANO TSNO=

SPECI PABA 270040Z AUTO 07012KT 1 3/4SM -SN OVC012 M14/M17 A3010 RMK AO2
     VIS 1/2V5 P0000 FZRANO TSNO=

SPECI PABA 270042Z AUTO 08013KT 3SM -SN OVC012 M14/M17 A3010 RMK AO2
      P0000 FZRANO TSNO=

PABA 270052Z AUTO 06013KT 4SM -SN OVC012 M14/M17 A3011=

PABA 270057Z AUTO 07012KT 1 1/2SM -SN OVC012 M14/M17 A3010 RMK AO2
     P0000 FZRANO TSNO=

SPECI PABA 270109Z AUTO 07014KT 3SM -SN OVC012 M14/M17 A3010 RMK AO2
     P0000 FZRANO TSNO=

SPECI PABA 270113Z AUTO 07015KT 1 1/2SM -SN BKN012 OVC018 M14/M17 A3010
      RMK AO2 VIS 1/2V5 P0000 FZRANO TSNO=

SPECI PABA 270123Z AUTO 07012KT 3SM -SN OVC012 M14/M17 A3010 RMK AO2
     P0000 FZRANO TSNO=

SPECI PABA 270135Z AUTO 06014KT 2SM -SN OVC012 M14/M17 A3010 RMK AO2
      P0000 FZRANO TSNO=

SPECI PABA 270138Z AUTO 07013KT 1 1/4SM -SN FEW006 OVC012 M14/M17 A3010
     RMK AO2 VIS 1/2V5 P0000 FZRANO TSNO=

SPECI PABA 270141Z AUTO 07014KT 1SM -SN BR OVC012 M14/M17 A3010 RMK
      AO2 VIS 1/2V3 P0000 FZRANO TSNO=

SPECI PABA 270145Z AUTO 07012KT 1 1/4SM -SN BR OVC012 M14/M17 A3010
      RMK AO2 P0000 FZRANO TSNO=

PABA 270152Z AUTO 07013KT 3SM -SN BR OVC012 M14/M17 A3010=

PABA 270155Z AUTO 08013KT 2SM -SN BR OVC012 M14/M17 A3010 RMK AO2
     VIS 3/4V5 P0000 FZRANO TSNO=

SPECI PABA 270159Z AUTO 07014KT 1 1/4SM -SN OVC012 M14/M17 A3010 RMK AO2
     VIS 3/4V5 P0000 FZRANO TSNO=

SPECI PABA 270210Z AUTO 07014KT 2SM -SN BR OVC012 M14/M17 A3010 RMK AO2
     VIS 1 1/4V5 P0000 FZRANO TSNO=

SPECI PABA 270225Z AUTO 08016KT 1 3/4SM -SN BR OVC012 M14/M17 A3010 RMK
     AO2 VIS 3/4V5 P0000 FZRANO TSNO=

SPECI PABA 270230Z AUTO 08011KT 2SM -SN BR OVC012 M14/M17 A3010 RMK
      AO2 P0000 FZRANO TSNO=

SPECI PABA 270241Z AUTO 08016KT 1 1/2SM -SN BR OVC012 M14/M17 A3010 RMK
     AO2 P0000 FZRANO TSNO=

PABA 270252Z AUTO 09014KT 2SM -SN BR OVC014 M14/M17 A3010=

SPECI PABA 270306Z AUTO 07013KT 1 3/4SM -SN OVC012 M14/M17 A3011 RMK
      AO2 VIS 1V5 P0000 FZRANO TSNO=

SPECI PABA 270321Z AUTO 08014KT 2SM -SN BR OVC012 M15/M17 A3011 RMK AO2
     VIS 1V5 P0000 FZRANO TSNO=

SPECI PABA 270336Z AUTO 08015KT 3SM -SN BR OVC012 M15/M17 A3011 RMK
      AO2 P0000 FZRANO TSNO=

SPECI PABA 270342Z AUTO 08016KT 2SM -SN BR OVC012 M15/M17 A3011 RMK
      AO2 VIS 1 1/2V5 P0000 FZRANO TSNO=

SPECI PABA 270346Z AUTO 07014KT 1 1/2SM -SN BR OVC012 M15/M17 A3011 RMK
     AO2 VIS 1V4 P0000 FZRANO TSNO=

PABA 270352Z AUTO 07014KT 1 1/4SM -SN BR OVC012 M15/M17 A3011=

SPECI PABA 270403Z AUTO 09016KT 2 1/2SM -SN BR FEW007 OVC012 M15/M17
      A3011 RMK AO2 VIS 1 1/2V5 P0000 FZRANO TSNO=

SPECI PABA 270406Z AUTO 09016KT 3SM -SN BR FEW007 OVC012 M15/M17 A3011
     RMK AO2 P0000 FZRANO TSNO=

SPECI PABA 270416Z AUTO 09015KT 2SM -SN BR OVC010 M15/M17 A3011 RMK
      AO2 VIS 1 1/4V4 CIG 005V015 P0000 FZRANO TSNO=

SPECI PABA 270430Z AUTO 09015KT 3SM -SN BR OVC010 M15/M17 A3011 RMK
      AO2 P0000 FZRANO TSNO=

METAR PABA 270452Z AUTO 10017KT 3SM -SN BR OVC010 M15/M17 A3011 RMK
      AO2 SLP181 P0000 T11501172 FZRANO TSNO=


NOAA's National Weather Service
Alaska Aviation Weather Unit
6930 Sand Lake Road
Anchorage, AK 99502-1845
Disclaimer
Credits
Glossary
Privacy Policy
About Us
Career Opportunities
Contact AAWU Internet Services Site last modified: April, 17th 2012